Terminal Aerodrome Forecast
Issued by NWS

Home | Current Version | Previous Version | Text Only | Print | Product List | Glossary On
Versions: 1 2 3 4 5 6 7 8 9 10 11 12 13 14 15 16 17 18 19 20
000
FTUS46 KMFR 182351
TAFRBG
TAF
KRBG 182351Z 1900/1924 18008KT P6SM -RA BKN060 OVC100
     FM190400 18009KT 5SM RA BR SCT015 OVC040
     FM190900 VRB03KT P6SM -RA OVC030
     FM191200 VRB03KT 5SM -SHRA BR OVC020
     FM191900 18003KT P6SM VCSH SCT020 BKN050=

USA.gov is the U.S. government's official web portal to all federal, state and local government web resources and services.